Aviation Digital Data Service (ADDS)

Output produced by METARs form (0551 UTC 20 December 2014)
found at http://www.aviationweather.gov/adds/metars/
 
KILG 200451Z 25004KT 10SM CLR M02/M06 A3022 RMK AO2 SLP235 T10171061 400611028
KILG 200533Z 2006/2106 28005KT P6SM SCT035 
     FM200800 34004KT P6SM BKN030 
     FM201400 35005KT P6SM SCT035 BKN200 
     FM210200 VRB02KT P6SM SCT030 BKN100